Pembroke, North Carolina
Current Conditions -  °F | °C
As of 3:54 AM on Saturday 22 Nov 2014 (Local Time) from KLBT Reporting Station
Clear Clear  
Wind Chill: 28°   Ceiling: Unl
Heat Index: 28°   Visibility: 10mi
Dew Point: 16°   Wind: 0mph
Humidity: 61%   Direction: NA
Pressure: 30.54"   Gusts: NA
Location:  34.68°N, 79.2°W
Report Text: KLBT 220854Z AUTO 00000KT 10SM CLR M02/M09 A3054 RMK AO2 SLP342 T10221089 50003
Loading
Personal Weather Stations






























Interactive Weather Map New forecast layout! Learn more

10-Day Weather Forecast

Advertisements
Track Severe Weather on mobile